sensor_id;sensor_type;location;lat;lon;timestamp;P1;durP1;ratioP1;P2;durP2;ratioP2
46835;SDS011;32573;51.290;6.926;2024-01-06T00:00:51;5.15;;;2.40;;
46835;SDS011;32573;51.290;6.926;2024-01-06T00:03:20;5.40;;;2.35;;
46835;SDS011;32573;51.290;6.926;2024-01-06T00:05:48;5.88;;;2.63;;
46835;SDS011;32573;51.290;6.926;2024-01-06T00:08:18;6.15;;;2.40;;
46835;SDS011;32573;51.290;6.926;2024-01-06T00:10:46;5.07;;;2.25;;
46835;SDS011;32573;51.290;6.926;2024-01-06T00:13:14;5.05;;;2.45;;
46835;SDS011;32573;51.290;6.926;2024-01-06T00:15:42;4.70;;;2.20;;
46835;SDS011;32573;51.290;6.926;2024-01-06T00:18:11;5.47;;;2.30;;
46835;SDS011;32573;51.290;6.926;2024-01-06T00:20:39;4.28;;;2.00;;
46835;SDS011;32573;51.290;6.926;2024-01-06T00:23:08;5.03;;;2.13;;
46835;SDS011;32573;51.290;6.926;2024-01-06T00:25:37;5.68;;;2.53;;
46835;SDS011;32573;51.290;6.926;2024-01-06T00:28:05;6.20;;;2.80;;
46835;SDS011;32573;51.290;6.926;2024-01-06T00:30:34;4.95;;;2.30;;
46835;SDS011;32573;51.290;6.926;2024-01-06T00:33:02;5.70;;;2.50;;
46835;SDS011;32573;51.290;6.926;2024-01-06T00:35:30;5.05;;;2.25;;
46835;SDS011;32573;51.290;6.926;2024-01-06T00:37:59;6.03;;;2.28;;
46835;SDS011;32573;51.290;6.926;2024-01-06T00:40:28;5.53;;;2.38;;
46835;SDS011;32573;51.290;6.926;2024-01-06T00:42:57;5.47;;;2.45;;
46835;SDS011;32573;51.290;6.926;2024-01-06T00:45:26;5.82;;;2.50;;
46835;SDS011;32573;51.290;6.926;2024-01-06T00:47:54;7.00;;;2.85;;
46835;SDS011;32573;51.290;6.926;2024-01-06T00:50:22;5.43;;;2.65;;
46835;SDS011;32573;51.290;6.926;2024-01-06T00:52:51;5.32;;;2.45;;
46835;SDS011;32573;51.290;6.926;2024-01-06T00:55:19;5.78;;;2.50;;
46835;SDS011;32573;51.290;6.926;2024-01-06T00:57:48;6.38;;;2.55;;
46835;SDS011;32573;51.290;6.926;2024-01-06T01:00:18;5.07;;;2.55;;
46835;SDS011;32573;51.290;6.926;2024-01-06T01:02:46;4.95;;;2.42;;
46835;SDS011;32573;51.290;6.926;2024-01-06T01:05:15;6.35;;;3.03;;
46835;SDS011;32573;51.290;6.926;2024-01-06T01:07:43;5.72;;;3.03;;
46835;SDS011;32573;51.290;6.926;2024-01-06T01:10:11;5.47;;;2.50;;
46835;SDS011;32573;51.290;6.926;2024-01-06T01:12:40;5.53;;;2.78;;
46835;SDS011;32573;51.290;6.926;2024-01-06T01:15:09;6.55;;;2.42;;
46835;SDS011;32573;51.290;6.926;2024-01-06T01:17:38;5.38;;;2.38;;
46835;SDS011;32573;51.290;6.926;2024-01-06T01:20:07;5.95;;;2.65;;
46835;SDS011;32573;51.290;6.926;2024-01-06T01:22:36;6.38;;;2.80;;
46835;SDS011;32573;51.290;6.926;2024-01-06T01:25:04;5.40;;;2.80;;
46835;SDS011;32573;51.290;6.926;2024-01-06T01:27:34;5.13;;;2.60;;
46835;SDS011;32573;51.290;6.926;2024-01-06T01:30:02;6.20;;;2.72;;
46835;SDS011;32573;51.290;6.926;2024-01-06T01:32:32;6.80;;;2.75;;
46835;SDS011;32573;51.290;6.926;2024-01-06T01:35:02;7.28;;;2.72;;
46835;SDS011;32573;51.290;6.926;2024-01-06T01:37:31;5.95;;;2.80;;
46835;SDS011;32573;51.290;6.926;2024-01-06T01:39:59;6.57;;;2.80;;
46835;SDS011;32573;51.290;6.926;2024-01-06T01:42:27;6.40;;;3.03;;
46835;SDS011;32573;51.290;6.926;2024-01-06T01:44:55;8.75;;;3.53;;
46835;SDS011;32573;51.290;6.926;2024-01-06T01:47:23;7.00;;;3.20;;
46835;SDS011;32573;51.290;6.926;2024-01-06T01:49:52;6.03;;;2.78;;
46835;SDS011;32573;51.290;6.926;2024-01-06T01:52:24;6.97;;;3.33;;
46835;SDS011;32573;51.290;6.926;2024-01-06T01:54:52;7.72;;;3.50;;
46835;SDS011;32573;51.290;6.926;2024-01-06T01:57:20;6.88;;;3.35;;
46835;SDS011;32573;51.290;6.926;2024-01-06T01:59:52;7.70;;;3.45;;
46835;SDS011;32573;51.290;6.926;2024-01-06T02:02:20;7.80;;;3.10;;
46835;SDS011;32573;51.290;6.926;2024-01-06T02:04:49;7.47;;;3.35;;
46835;SDS011;32573;51.290;6.926;2024-01-06T02:07:17;7.35;;;3.25;;
46835;SDS011;32573;51.290;6.926;2024-01-06T02:09:47;7.90;;;3.15;;
46835;SDS011;32573;51.290;6.926;2024-01-06T02:12:15;6.45;;;3.10;;
46835;SDS011;32573;51.290;6.926;2024-01-06T02:14:44;8.40;;;3.70;;
46835;SDS011;32573;51.290;6.926;2024-01-06T02:17:12;7.85;;;3.40;;
46835;SDS011;32573;51.290;6.926;2024-01-06T02:19:40;8.40;;;3.50;;
46835;SDS011;32573;51.290;6.926;2024-01-06T02:22:10;6.47;;;3.15;;
46835;SDS011;32573;51.290;6.926;2024-01-06T02:24:38;7.45;;;3.55;;
46835;SDS011;32573;51.290;6.926;2024-01-06T02:27:06;7.20;;;3.35;;
46835;SDS011;32573;51.290;6.926;2024-01-06T02:29:34;7.85;;;3.80;;
46835;SDS011;32573;51.290;6.926;2024-01-06T02:32:03;6.82;;;2.90;;
46835;SDS011;32573;51.290;6.926;2024-01-06T02:34:32;7.63;;;3.10;;
46835;SDS011;32573;51.290;6.926;2024-01-06T02:37:01;6.68;;;3.05;;
46835;SDS011;32573;51.290;6.926;2024-01-06T02:39:31;6.93;;;3.20;;
46835;SDS011;32573;51.290;6.926;2024-01-06T02:41:59;8.93;;;3.20;;
46835;SDS011;32573;51.290;6.926;2024-01-06T02:44:27;8.20;;;4.20;;
46835;SDS011;32573;51.290;6.926;2024-01-06T02:46:55;7.07;;;3.10;;
46835;SDS011;32573;51.290;6.926;2024-01-06T02:49:24;7.32;;;3.05;;
46835;SDS011;32573;51.290;6.926;2024-01-06T02:51:52;6.90;;;3.30;;
46835;SDS011;32573;51.290;6.926;2024-01-06T02:54:20;7.80;;;3.47;;
46835;SDS011;32573;51.290;6.926;2024-01-06T02:56:50;6.55;;;3.35;;
46835;SDS011;32573;51.290;6.926;2024-01-06T02:59:18;7.05;;;3.30;;
46835;SDS011;32573;51.290;6.926;2024-01-06T03:01:46;6.05;;;2.72;;
46835;SDS011;32573;51.290;6.926;2024-01-06T03:04:14;6.10;;;2.53;;
46835;SDS011;32573;51.290;6.926;2024-01-06T03:06:43;5.95;;;2.63;;
46835;SDS011;32573;51.290;6.926;2024-01-06T03:09:13;6.18;;;2.42;;
46835;SDS011;32573;51.290;6.926;2024-01-06T03:11:41;6.40;;;2.80;;
46835;SDS011;32573;51.290;6.926;2024-01-06T03:14:10;6.80;;;3.13;;
46835;SDS011;32573;51.290;6.926;2024-01-06T03:16:39;6.25;;;2.85;;
46835;SDS011;32573;51.290;6.926;2024-01-06T03:19:07;6.07;;;2.70;;
46835;SDS011;32573;51.290;6.926;2024-01-06T03:21:35;6.25;;;2.72;;
46835;SDS011;32573;51.290;6.926;2024-01-06T03:24:04;6.20;;;2.47;;
46835;SDS011;32573;51.290;6.926;2024-01-06T03:26:35;7.15;;;2.95;;
46835;SDS011;32573;51.290;6.926;2024-01-06T03:29:03;7.15;;;3.33;;
46835;SDS011;32573;51.290;6.926;2024-01-06T03:31:34;6.57;;;3.33;;
46835;SDS011;32573;51.290;6.926;2024-01-06T03:34:02;7.95;;;3.63;;
46835;SDS011;32573;51.290;6.926;2024-01-06T03:36:31;6.40;;;2.70;;
46835;SDS011;32573;51.290;6.926;2024-01-06T03:38:59;7.05;;;3.33;;
46835;SDS011;32573;51.290;6.926;2024-01-06T03:41:27;8.07;;;3.50;;
46835;SDS011;32573;51.290;6.926;2024-01-06T03:43:55;6.93;;;3.38;;
46835;SDS011;32573;51.290;6.926;2024-01-06T03:46:24;9.00;;;3.88;;
46835;SDS011;32573;51.290;6.926;2024-01-06T03:48:53;8.70;;;3.40;;
46835;SDS011;32573;51.290;6.926;2024-01-06T03:51:21;7.38;;;3.40;;
46835;SDS011;32573;51.290;6.926;2024-01-06T03:53:50;8.05;;;3.20;;
46835;SDS011;32573;51.290;6.926;2024-01-06T03:56:18;14.18;;;5.60;;
46835;SDS011;32573;51.290;6.926;2024-01-06T03:58:46;7.68;;;3.70;;
46835;SDS011;32573;51.290;6.926;2024-01-06T04:01:15;8.80;;;4.07;;
46835;SDS011;32573;51.290;6.926;2024-01-06T04:03:43;14.68;;;6.50;;
46835;SDS011;32573;51.290;6.926;2024-01-06T04:06:13;14.25;;;6.78;;
46835;SDS011;32573;51.290;6.926;2024-01-06T04:08:41;13.25;;;6.15;;
46835;SDS011;32573;51.290;6.926;2024-01-06T04:11:09;15.30;;;7.35;;
46835;SDS011;32573;51.290;6.926;2024-01-06T04:13:37;11.15;;;5.22;;
46835;SDS011;32573;51.290;6.926;2024-01-06T04:16:06;9.68;;;4.70;;
46835;SDS011;32573;51.290;6.926;2024-01-06T04:18:34;10.15;;;4.93;;
46835;SDS011;32573;51.290;6.926;2024-01-06T04:21:02;10.52;;;4.88;;
46835;SDS011;32573;51.290;6.926;2024-01-06T04:23:33;10.73;;;4.72;;
46835;SDS011;32573;51.290;6.926;2024-01-06T04:26:01;8.63;;;4.32;;
46835;SDS011;32573;51.290;6.926;2024-01-06T04:28:31;9.93;;;4.18;;
46835;SDS011;32573;51.290;6.926;2024-01-06T04:30:59;11.77;;;4.72;;
46835;SDS011;32573;51.290;6.926;2024-01-06T04:33:27;10.70;;;4.47;;
46835;SDS011;32573;51.290;6.926;2024-01-06T04:35:56;10.13;;;4.38;;
46835;SDS011;32573;51.290;6.926;2024-01-06T04:38:24;9.45;;;4.25;;
46835;SDS011;32573;51.290;6.926;2024-01-06T04:40:54;8.75;;;4.18;;
46835;SDS011;32573;51.290;6.926;2024-01-06T04:43:22;9.23;;;3.63;;
46835;SDS011;32573;51.290;6.926;2024-01-06T04:45:50;7.55;;;3.30;;
46835;SDS011;32573;51.290;6.926;2024-01-06T04:48:19;7.70;;;3.17;;
46835;SDS011;32573;51.290;6.926;2024-01-06T04:50:47;7.35;;;3.25;;
46835;SDS011;32573;51.290;6.926;2024-01-06T04:53:15;7.88;;;3.42;;
46835;SDS011;32573;51.290;6.926;2024-01-06T04:55:44;7.78;;;3.22;;
46835;SDS011;32573;51.290;6.926;2024-01-06T04:58:13;7.10;;;3.10;;
46835;SDS011;32573;51.290;6.926;2024-01-06T05:00:41;6.40;;;2.67;;
46835;SDS011;32573;51.290;6.926;2024-01-06T05:03:10;5.57;;;2.30;;
46835;SDS011;32573;51.290;6.926;2024-01-06T05:05:38;7.57;;;2.90;;
46835;SDS011;32573;51.290;6.926;2024-01-06T05:08:06;6.38;;;2.83;;
46835;SDS011;32573;51.290;6.926;2024-01-06T05:10:35;4.95;;;2.20;;
46835;SDS011;32573;51.290;6.926;2024-01-06T05:13:03;5.47;;;2.08;;
46835;SDS011;32573;51.290;6.926;2024-01-06T05:15:33;5.55;;;2.38;;
46835;SDS011;32573;51.290;6.926;2024-01-06T05:18:01;5.13;;;2.30;;
46835;SDS011;32573;51.290;6.926;2024-01-06T05:20:29;6.60;;;2.50;;
46835;SDS011;32573;51.290;6.926;2024-01-06T05:22:57;6.18;;;2.35;;
46835;SDS011;32573;51.290;6.926;2024-01-06T05:25:26;6.80;;;2.60;;
46835;SDS011;32573;51.290;6.926;2024-01-06T05:27:54;6.38;;;2.70;;
46835;SDS011;32573;51.290;6.926;2024-01-06T05:30:22;5.97;;;2.33;;
46835;SDS011;32573;51.290;6.926;2024-01-06T05:32:52;3.95;;;1.90;;
46835;SDS011;32573;51.290;6.926;2024-01-06T05:35:20;5.85;;;2.15;;
46835;SDS011;32573;51.290;6.926;2024-01-06T05:37:48;5.43;;;2.30;;
46835;SDS011;32573;51.290;6.926;2024-01-06T05:40:16;6.03;;;2.10;;
46835;SDS011;32573;51.290;6.926;2024-01-06T05:42:45;5.55;;;1.98;;
46835;SDS011;32573;51.290;6.926;2024-01-06T05:45:13;6.07;;;2.35;;
46835;SDS011;32573;51.290;6.926;2024-01-06T05:47:41;5.55;;;2.00;;
46835;SDS011;32573;51.290;6.926;2024-01-06T05:50:11;5.03;;;2.08;;
46835;SDS011;32573;51.290;6.926;2024-01-06T05:52:42;4.35;;;1.92;;
46835;SDS011;32573;51.290;6.926;2024-01-06T05:55:11;4.85;;;2.10;;
46835;SDS011;32573;51.290;6.926;2024-01-06T05:57:39;5.25;;;1.90;;
46835;SDS011;32573;51.290;6.926;2024-01-06T06:00:08;5.50;;;2.22;;
46835;SDS011;32573;51.290;6.926;2024-01-06T06:02:40;4.95;;;1.92;;
46835;SDS011;32573;51.290;6.926;2024-01-06T06:05:08;5.50;;;2.20;;
46835;SDS011;32573;51.290;6.926;2024-01-06T06:07:38;5.80;;;2.10;;
46835;SDS011;32573;51.290;6.926;2024-01-06T06:10:07;4.60;;;2.03;;
46835;SDS011;32573;51.290;6.926;2024-01-06T06:12:37;6.78;;;2.58;;
46835;SDS011;32573;51.290;6.926;2024-01-06T06:15:06;5.65;;;2.20;;
46835;SDS011;32573;51.290;6.926;2024-01-06T06:17:35;4.95;;;2.00;;
46835;SDS011;32573;51.290;6.926;2024-01-06T06:20:04;5.75;;;2.17;;
46835;SDS011;32573;51.290;6.926;2024-01-06T06:22:33;6.07;;;2.33;;
46835;SDS011;32573;51.290;6.926;2024-01-06T06:25:03;4.72;;;2.17;;
46835;SDS011;32573;51.290;6.926;2024-01-06T06:27:31;5.50;;;2.53;;
46835;SDS011;32573;51.290;6.926;2024-01-06T06:30:00;5.95;;;2.30;;
46835;SDS011;32573;51.290;6.926;2024-01-06T06:32:28;6.88;;;2.45;;
46835;SDS011;32573;51.290;6.926;2024-01-06T06:34:56;6.10;;;2.45;;
46835;SDS011;32573;51.290;6.926;2024-01-06T06:37:25;5.82;;;2.33;;
46835;SDS011;32573;51.290;6.926;2024-01-06T06:39:53;6.28;;;2.55;;
46835;SDS011;32573;51.290;6.926;2024-01-06T06:42:22;6.20;;;2.22;;
46835;SDS011;32573;51.290;6.926;2024-01-06T06:44:51;6.03;;;2.20;;
46835;SDS011;32573;51.290;6.926;2024-01-06T06:47:19;5.60;;;2.10;;
46835;SDS011;32573;51.290;6.926;2024-01-06T06:49:47;8.13;;;3.28;;
46835;SDS011;32573;51.290;6.926;2024-01-06T06:52:15;6.10;;;2.40;;
46835;SDS011;32573;51.290;6.926;2024-01-06T06:54:43;8.60;;;3.45;;
46835;SDS011;32573;51.290;6.926;2024-01-06T06:57:12;6.07;;;2.80;;
46835;SDS011;32573;51.290;6.926;2024-01-06T06:59:41;5.68;;;2.42;;
46835;SDS011;32573;51.290;6.926;2024-01-06T07:02:10;7.38;;;3.10;;
46835;SDS011;32573;51.290;6.926;2024-01-06T07:04:38;5.72;;;2.33;;
46835;SDS011;32573;51.290;6.926;2024-01-06T07:07:06;6.43;;;2.85;;
46835;SDS011;32573;51.290;6.926;2024-01-06T07:09:34;7.75;;;2.97;;
46835;SDS011;32573;51.290;6.926;2024-01-06T07:12:03;5.97;;;2.63;;
46835;SDS011;32573;51.290;6.926;2024-01-06T07:14:32;5.93;;;2.65;;
46835;SDS011;32573;51.290;6.926;2024-01-06T07:17:01;7.60;;;3.13;;
46835;SDS011;32573;51.290;6.926;2024-01-06T07:19:31;6.28;;;2.80;;
46835;SDS011;32573;51.290;6.926;2024-01-06T07:22:00;7.82;;;3.72;;
46835;SDS011;32573;51.290;6.926;2024-01-06T07:24:32;6.90;;;2.88;;
46835;SDS011;32573;51.290;6.926;2024-01-06T07:27:01;6.95;;;3.03;;
46835;SDS011;32573;51.290;6.926;2024-01-06T07:29:29;7.00;;;2.70;;
46835;SDS011;32573;51.290;6.926;2024-01-06T07:31:58;5.63;;;2.72;;
46835;SDS011;32573;51.290;6.926;2024-01-06T07:34:27;6.57;;;2.90;;
46835;SDS011;32573;51.290;6.926;2024-01-06T07:36:56;6.43;;;2.90;;
46835;SDS011;32573;51.290;6.926;2024-01-06T07:39:24;7.63;;;2.70;;
46835;SDS011;32573;51.290;6.926;2024-01-06T07:41:53;6.32;;;3.08;;
46835;SDS011;32573;51.290;6.926;2024-01-06T07:44:21;5.93;;;2.80;;
46835;SDS011;32573;51.290;6.926;2024-01-06T07:46:52;7.53;;;3.20;;
46835;SDS011;32573;51.290;6.926;2024-01-06T07:49:20;6.97;;;3.33;;
46835;SDS011;32573;51.290;6.926;2024-01-06T07:51:50;8.52;;;3.38;;
46835;SDS011;32573;51.290;6.926;2024-01-06T07:54:18;9.68;;;3.90;;
46835;SDS011;32573;51.290;6.926;2024-01-06T07:56:47;8.32;;;3.28;;
46835;SDS011;32573;51.290;6.926;2024-01-06T07:59:15;10.93;;;4.97;;
46835;SDS011;32573;51.290;6.926;2024-01-06T08:01:43;8.45;;;3.53;;
46835;SDS011;32573;51.290;6.926;2024-01-06T08:04:11;7.25;;;3.25;;
46835;SDS011;32573;51.290;6.926;2024-01-06T08:06:40;7.70;;;3.60;;
46835;SDS011;32573;51.290;6.926;2024-01-06T08:09:09;7.88;;;3.63;;
46835;SDS011;32573;51.290;6.926;2024-01-06T08:11:38;8.02;;;3.15;;
46835;SDS011;32573;51.290;6.926;2024-01-06T08:14:06;12.38;;;5.50;;
46835;SDS011;32573;51.290;6.926;2024-01-06T08:16:34;10.93;;;4.82;;
46835;SDS011;32573;51.290;6.926;2024-01-06T08:19:03;8.98;;;3.97;;
46835;SDS011;32573;51.290;6.926;2024-01-06T08:21:31;11.85;;;4.45;;
46835;SDS011;32573;51.290;6.926;2024-01-06T08:24:01;7.90;;;3.42;;
46835;SDS011;32573;51.290;6.926;2024-01-06T08:26:31;10.13;;;4.45;;
46835;SDS011;32573;51.290;6.926;2024-01-06T08:29:00;8.82;;;4.15;;
46835;SDS011;32573;51.290;6.926;2024-01-06T08:31:28;6.68;;;2.90;;
46835;SDS011;32573;51.290;6.926;2024-01-06T08:33:56;8.38;;;3.33;;
46835;SDS011;32573;51.290;6.926;2024-01-06T08:36:25;8.45;;;3.00;;
46835;SDS011;32573;51.290;6.926;2024-01-06T08:38:54;8.32;;;3.45;;
46835;SDS011;32573;51.290;6.926;2024-01-06T08:41:22;7.20;;;3.08;;
46835;SDS011;32573;51.290;6.926;2024-01-06T08:43:51;7.00;;;2.88;;
46835;SDS011;32573;51.290;6.926;2024-01-06T08:46:21;8.65;;;3.10;;
46835;SDS011;32573;51.290;6.926;2024-01-06T08:48:49;6.90;;;3.05;;
46835;SDS011;32573;51.290;6.926;2024-01-06T08:51:17;7.50;;;3.35;;
46835;SDS011;32573;51.290;6.926;2024-01-06T08:53:47;6.95;;;3.10;;
46835;SDS011;32573;51.290;6.926;2024-01-06T08:56:15;11.00;;;3.83;;
46835;SDS011;32573;51.290;6.926;2024-01-06T08:58:44;8.15;;;3.50;;
46835;SDS011;32573;51.290;6.926;2024-01-06T09:01:14;10.07;;;4.30;;
46835;SDS011;32573;51.290;6.926;2024-01-06T09:03:42;6.68;;;2.85;;
46835;SDS011;32573;51.290;6.926;2024-01-06T09:06:10;6.75;;;3.17;;
46835;SDS011;32573;51.290;6.926;2024-01-06T09:08:39;7.32;;;3.15;;
46835;SDS011;32573;51.290;6.926;2024-01-06T09:11:07;8.00;;;3.40;;
46835;SDS011;32573;51.290;6.926;2024-01-06T09:13:35;7.78;;;3.35;;
46835;SDS011;32573;51.290;6.926;2024-01-06T09:16:03;6.57;;;3.10;;
46835;SDS011;32573;51.290;6.926;2024-01-06T09:18:33;6.45;;;2.80;;
46835;SDS011;32573;51.290;6.926;2024-01-06T09:21:02;6.65;;;2.80;;
46835;SDS011;32573;51.290;6.926;2024-01-06T09:23:30;7.07;;;3.30;;
46835;SDS011;32573;51.290;6.926;2024-01-06T09:25:58;6.68;;;3.00;;
46835;SDS011;32573;51.290;6.926;2024-01-06T09:28:27;6.93;;;3.20;;
46835;SDS011;32573;51.290;6.926;2024-01-06T09:30:55;10.93;;;4.45;;
46835;SDS011;32573;51.290;6.926;2024-01-06T09:33:23;9.18;;;4.13;;
46835;SDS011;32573;51.290;6.926;2024-01-06T09:35:54;13.52;;;5.57;;
46835;SDS011;32573;51.290;6.926;2024-01-06T09:38:22;11.85;;;5.00;;
46835;SDS011;32573;51.290;6.926;2024-01-06T09:40:50;14.40;;;6.28;;
46835;SDS011;32573;51.290;6.926;2024-01-06T09:43:19;13.07;;;4.95;;
46835;SDS011;32573;51.290;6.926;2024-01-06T09:45:48;9.82;;;4.43;;
46835;SDS011;32573;51.290;6.926;2024-01-06T09:48:25;10.43;;;4.70;;
46835;SDS011;32573;51.290;6.926;2024-01-06T09:50:59;9.98;;;4.85;;
46835;SDS011;32573;51.290;6.926;2024-01-06T09:53:34;12.65;;;5.07;;
46835;SDS011;32573;51.290;6.926;2024-01-06T09:56:04;11.73;;;4.60;;
46835;SDS011;32573;51.290;6.926;2024-01-06T09:58:33;16.80;;;6.68;;
46835;SDS011;32573;51.290;6.926;2024-01-06T10:01:03;12.45;;;5.35;;
46835;SDS011;32573;51.290;6.926;2024-01-06T10:03:33;12.60;;;5.28;;
46835;SDS011;32573;51.290;6.926;2024-01-06T10:06:04;12.20;;;4.90;;
46835;SDS011;32573;51.290;6.926;2024-01-06T10:08:32;10.98;;;4.50;;
46835;SDS011;32573;51.290;6.926;2024-01-06T10:11:01;14.23;;;5.30;;
46835;SDS011;32573;51.290;6.926;2024-01-06T10:13:30;11.80;;;4.35;;
46835;SDS011;32573;51.290;6.926;2024-01-06T10:15:58;13.80;;;5.50;;
46835;SDS011;32573;51.290;6.926;2024-01-06T10:18:27;14.35;;;5.75;;
46835;SDS011;32573;51.290;6.926;2024-01-06T10:20:56;13.77;;;5.57;;
46835;SDS011;32573;51.290;6.926;2024-01-06T10:23:27;13.45;;;5.82;;
46835;SDS011;32573;51.290;6.926;2024-01-06T10:25:56;12.57;;;5.22;;
46835;SDS011;32573;51.290;6.926;2024-01-06T10:28:27;13.40;;;5.35;;
46835;SDS011;32573;51.290;6.926;2024-01-06T10:30:56;13.10;;;5.20;;
46835;SDS011;32573;51.290;6.926;2024-01-06T10:33:25;13.40;;;5.18;;
46835;SDS011;32573;51.290;6.926;2024-01-06T10:35:54;10.48;;;4.90;;
46835;SDS011;32573;51.290;6.926;2024-01-06T10:38:23;16.33;;;6.88;;
46835;SDS011;32573;51.290;6.926;2024-01-06T10:40:58;13.27;;;5.35;;
46835;SDS011;32573;51.290;6.926;2024-01-06T10:43:27;10.68;;;4.93;;
46835;SDS011;32573;51.290;6.926;2024-01-06T10:45:56;11.90;;;5.00;;
46835;SDS011;32573;51.290;6.926;2024-01-06T10:48:26;15.02;;;6.28;;
46835;SDS011;32573;51.290;6.926;2024-01-06T10:50:57;13.73;;;6.20;;
46835;SDS011;32573;51.290;6.926;2024-01-06T10:53:26;16.02;;;6.85;;
46835;SDS011;32573;51.290;6.926;2024-01-06T10:55:55;14.85;;;6.38;;
46835;SDS011;32573;51.290;6.926;2024-01-06T10:58:26;13.82;;;5.40;;
46835;SDS011;32573;51.290;6.926;2024-01-06T11:00:55;14.80;;;6.15;;
46835;SDS011;32573;51.290;6.926;2024-01-06T11:03:23;13.68;;;6.25;;
46835;SDS011;32573;51.290;6.926;2024-01-06T11:05:52;13.35;;;6.13;;
46835;SDS011;32573;51.290;6.926;2024-01-06T11:08:21;15.98;;;6.88;;
46835;SDS011;32573;51.290;6.926;2024-01-06T11:10:50;10.65;;;5.13;;
46835;SDS011;32573;51.290;6.926;2024-01-06T11:13:21;11.07;;;4.72;;
46835;SDS011;32573;51.290;6.926;2024-01-06T11:15:52;10.25;;;4.63;;
46835;SDS011;32573;51.290;6.926;2024-01-06T11:18:31;10.82;;;4.85;;
46835;SDS011;32573;51.290;6.926;2024-01-06T11:21:16;8.95;;;4.18;;
46835;SDS011;32573;51.290;6.926;2024-01-06T11:26:38;9.63;;;4.63;;
46835;SDS011;32573;51.290;6.926;2024-01-06T11:29:07;11.13;;;4.57;;
46835;SDS011;32573;51.290;6.926;2024-01-06T11:31:37;12.20;;;5.10;;
46835;SDS011;32573;51.290;6.926;2024-01-06T11:34:12;10.32;;;4.32;;
46835;SDS011;32573;51.290;6.926;2024-01-06T11:36:43;9.60;;;4.15;;
46835;SDS011;32573;51.290;6.926;2024-01-06T11:42:02;9.20;;;3.22;;
46835;SDS011;32573;51.290;6.926;2024-01-06T11:44:33;8.57;;;4.05;;
46835;SDS011;32573;51.290;6.926;2024-01-06T11:47:03;8.15;;;3.42;;
46835;SDS011;32573;51.290;6.926;2024-01-06T11:49:32;9.00;;;3.30;;
46835;SDS011;32573;51.290;6.926;2024-01-06T11:52:01;10.00;;;4.05;;
46835;SDS011;32573;51.290;6.926;2024-01-06T11:54:29;10.13;;;4.15;;
46835;SDS011;32573;51.290;6.926;2024-01-06T11:56:58;8.68;;;3.65;;
46835;SDS011;32573;51.290;6.926;2024-01-06T11:59:27;10.30;;;4.07;;
46835;SDS011;32573;51.290;6.926;2024-01-06T12:01:55;8.88;;;3.42;;
46835;SDS011;32573;51.290;6.926;2024-01-06T12:04:25;10.25;;;4.07;;
46835;SDS011;32573;51.290;6.926;2024-01-06T12:07:04;9.18;;;3.85;;
46835;SDS011;32573;51.290;6.926;2024-01-06T12:09:33;11.07;;;5.00;;
46835;SDS011;32573;51.290;6.926;2024-01-06T12:12:02;9.65;;;3.67;;
46835;SDS011;32573;51.290;6.926;2024-01-06T12:14:32;10.93;;;4.97;;
46835;SDS011;32573;51.290;6.926;2024-01-06T12:17:01;11.15;;;4.75;;
46835;SDS011;32573;51.290;6.926;2024-01-06T12:19:31;16.75;;;6.40;;
46835;SDS011;32573;51.290;6.926;2024-01-06T12:22:06;14.18;;;5.05;;
46835;SDS011;32573;51.290;6.926;2024-01-06T12:24:34;14.48;;;5.78;;
46835;SDS011;32573;51.290;6.926;2024-01-06T12:27:03;15.75;;;6.65;;
46835;SDS011;32573;51.290;6.926;2024-01-06T12:29:34;19.55;;;8.30;;
46835;SDS011;32573;51.290;6.926;2024-01-06T12:32:06;17.50;;;7.20;;
46835;SDS011;32573;51.290;6.926;2024-01-06T12:34:36;17.15;;;6.72;;
46835;SDS011;32573;51.290;6.926;2024-01-06T12:37:06;18.67;;;6.95;;
46835;SDS011;32573;51.290;6.926;2024-01-06T12:39:35;18.45;;;7.18;;
46835;SDS011;32573;51.290;6.926;2024-01-06T12:42:03;18.45;;;7.68;;
46835;SDS011;32573;51.290;6.926;2024-01-06T12:44:32;22.45;;;9.00;;
46835;SDS011;32573;51.290;6.926;2024-01-06T12:47:03;14.43;;;7.22;;
46835;SDS011;32573;51.290;6.926;2024-01-06T12:49:32;23.17;;;8.80;;
46835;SDS011;32573;51.290;6.926;2024-01-06T12:52:06;17.13;;;6.57;;
46835;SDS011;32573;51.290;6.926;2024-01-06T12:54:34;15.20;;;6.45;;
46835;SDS011;32573;51.290;6.926;2024-01-06T12:57:03;18.92;;;6.97;;
46835;SDS011;32573;51.290;6.926;2024-01-06T12:59:31;22.17;;;7.80;;
46835;SDS011;32573;51.290;6.926;2024-01-06T13:01:59;17.70;;;6.97;;
46835;SDS011;32573;51.290;6.926;2024-01-06T13:04:28;14.15;;;5.97;;
46835;SDS011;32573;51.290;6.926;2024-01-06T13:06:56;12.98;;;5.47;;
46835;SDS011;32573;51.290;6.926;2024-01-06T13:09:30;12.93;;;5.55;;
46835;SDS011;32573;51.290;6.926;2024-01-06T13:11:58;15.18;;;5.57;;
46835;SDS011;32573;51.290;6.926;2024-01-06T13:14:27;18.55;;;7.57;;
46835;SDS011;32573;51.290;6.926;2024-01-06T13:16:56;17.00;;;6.05;;
46835;SDS011;32573;51.290;6.926;2024-01-06T13:19:25;17.20;;;6.70;;
46835;SDS011;32573;51.290;6.926;2024-01-06T13:21:54;13.23;;;5.40;;
46835;SDS011;32573;51.290;6.926;2024-01-06T13:24:22;18.38;;;6.60;;
46835;SDS011;32573;51.290;6.926;2024-01-06T13:26:52;14.68;;;6.07;;
46835;SDS011;32573;51.290;6.926;2024-01-06T13:29:20;18.02;;;7.55;;
46835;SDS011;32573;51.290;6.926;2024-01-06T13:31:48;16.98;;;6.68;;
46835;SDS011;32573;51.290;6.926;2024-01-06T13:34:18;16.33;;;6.20;;
46835;SDS011;32573;51.290;6.926;2024-01-06T13:36:46;12.50;;;4.63;;
46835;SDS011;32573;51.290;6.926;2024-01-06T13:39:14;14.10;;;5.55;;
46835;SDS011;32573;51.290;6.926;2024-01-06T13:41:47;14.52;;;5.75;;
46835;SDS011;32573;51.290;6.926;2024-01-06T13:44:17;18.60;;;7.40;;
46835;SDS011;32573;51.290;6.926;2024-01-06T13:46:46;14.02;;;5.47;;
46835;SDS011;32573;51.290;6.926;2024-01-06T13:49:17;11.48;;;5.35;;
46835;SDS011;32573;51.290;6.926;2024-01-06T13:51:46;12.52;;;4.82;;
46835;SDS011;32573;51.290;6.926;2024-01-06T13:54:14;11.35;;;4.65;;
46835;SDS011;32573;51.290;6.926;2024-01-06T13:56:46;12.90;;;5.20;;
46835;SDS011;32573;51.290;6.926;2024-01-06T13:59:14;10.90;;;5.20;;
46835;SDS011;32573;51.290;6.926;2024-01-06T14:01:44;11.57;;;4.43;;
46835;SDS011;32573;51.290;6.926;2024-01-06T14:04:13;11.73;;;4.70;;
46835;SDS011;32573;51.290;6.926;2024-01-06T14:06:43;10.65;;;4.65;;
46835;SDS011;32573;51.290;6.926;2024-01-06T14:09:14;10.27;;;4.55;;
46835;SDS011;32573;51.290;6.926;2024-01-06T14:11:43;9.30;;;4.25;;
46835;SDS011;32573;51.290;6.926;2024-01-06T14:14:11;9.77;;;4.13;;
46835;SDS011;32573;51.290;6.926;2024-01-06T14:16:40;8.93;;;4.13;;
46835;SDS011;32573;51.290;6.926;2024-01-06T14:19:09;9.20;;;4.05;;
46835;SDS011;32573;51.290;6.926;2024-01-06T14:21:38;8.23;;;3.22;;
46835;SDS011;32573;51.290;6.926;2024-01-06T14:24:06;8.63;;;3.42;;
46835;SDS011;32573;51.290;6.926;2024-01-06T14:26:35;9.32;;;3.70;;
46835;SDS011;32573;51.290;6.926;2024-01-06T14:29:03;8.27;;;3.10;;
46835;SDS011;32573;51.290;6.926;2024-01-06T14:31:32;8.20;;;3.33;;
46835;SDS011;32573;51.290;6.926;2024-01-06T14:38:56;8.57;;;3.45;;
46835;SDS011;32573;51.290;6.926;2024-01-06T14:41:28;6.75;;;3.25;;
46835;SDS011;32573;51.290;6.926;2024-01-06T14:43:56;5.95;;;2.60;;
46835;SDS011;32573;51.290;6.926;2024-01-06T14:46:25;9.00;;;4.07;;
46835;SDS011;32573;51.290;6.926;2024-01-06T14:48:53;9.00;;;4.03;;
46835;SDS011;32573;51.290;6.926;2024-01-06T14:51:22;7.88;;;3.45;;
46835;SDS011;32573;51.290;6.926;2024-01-06T14:53:51;9.50;;;3.40;;
46835;SDS011;32573;51.290;6.926;2024-01-06T14:56:20;7.60;;;3.25;;
46835;SDS011;32573;51.290;6.926;2024-01-06T14:58:48;7.85;;;3.22;;
46835;SDS011;32573;51.290;6.926;2024-01-06T15:01:16;7.55;;;2.95;;
46835;SDS011;32573;51.290;6.926;2024-01-06T15:03:45;8.05;;;3.42;;